Tiempo atmosférico en la estación meteorológica de Santervás de la Vega, Villapún, Palencia (985 m.)



Fecha
DESCASC
Temp. máxima en grados centígrados (hora)
DESCASC
Temp. mínima en grados centígrados (hora)
DESCASC
Temp. media en grados centígrados
DESCASC
Racha de viento máxima en m/sg (hora)
DESCASC
Velocidad máxima media en intervalos de 10 minutos(hora)
DESCASC
Precipitaciones diarias en mm
DESCASC
Precipitaciones de 00:00 a 06:00 en mm
DESCASC
Precipitaciones de 06:00 a 12:00 en mm
DESCASC
Precipitaciones de 12:00 a 18:00 en mm
DESCASC
Precipitaciones de 18:00 a 24:00 en mm
DESCASC
28-02-2021 9.9 (15:00) -3 (07:20) 3.4 9.72 (12:30) 6.67 (11:30) 0 0 0 0 0
27-02-2021 13.2 (15:20) 2.9 (23:40) 8 10 (18:10) 6.67 (11:10) 0 0 0 0 0
26-02-2021 12.3 (16:00) 4.5 (23:50) 8.4 10 (11:00) 6.94 (13:30) 0 0 0 0 0
25-02-2021 10.3 (16:40) 3.6 (00:00) 7 6.94 (21:40) 4.17 (12:40) 0 0 0 0 0
24-02-2021 13.9 (16:40) -1.3 (-00:0) 6.3 8.61 (15:30) 5.28 (15:30) 0 0 0 0 0
23-02-2021 11.5 (16:50) -3.6 (-00:0) 4 6.39 (15:10) 3.89 (16:20) 0 0 0 0 0
22-02-2021 9.3 (15:40) -1 (-00:0) 4.2 8.06 (01:10) 4.72 (15:40) 1.4 1.4 0 0 0
21-02-2021 9 (13:30) 1.5 (00:00) 5.3 8.61 (23:00) 5.28 (11:10) 10.8 0 0 4.2 6.6
20-02-2021 12.9 (16:40) 3.1 (00:00) 8 11.94 (16:40) 7.5 (16:50) 0 0 0 0 0
19-02-2021 11.6 (14:50) 5 (00:00) 8.3 11.94 (14:20) 8.61 (14:20) 0.4 0.4 0 0 0
18-02-2021 9.5 (15:10) 5.3 (00:00) 7.4 15 (14:30) 10 (15:20) 3 0.2 0 1.6 1.2
17-02-2021 9.7 (15:00) 4.8 (00:00) 7.3 11.39 (23:30) 6.94 (14:10) 0 0 0 0 0
16-02-2021 9.4 (16:50) -0.4 (00:00) 4.5 13.06 (12:30) 8.33 (12:10) 1.2 0 0 1.2 0
15-02-2021 13.5 (16:50) 2.6 (00:00) 8 5.28 (16:10) 3.61 (16:00) 0 0 0 0 0
14-02-2021 10.3 (15:40) -0.1 (00:00) 5.1 3.89 (14:50) 2.78 (21:20) 0.2 0 0.2 0 0
13-02-2021 11.3 (15:50) -0.4 (00:00) 5.5 7.78 (16:20) 5.28 (16:20) 0 0 0 0 0
12-02-2021 11.7 (14:30) 1.4 (00:00) 6.5 14.17 (02:10) 9.72 (02:10) 4.2 3.2 1 0 0
11-02-2021 10.8 (15:50) 3.7 (00:00) 7.3 9.17 (22:30) 5.83 (22:30) 1 0 0 0.2 0.8
10-02-2021 8.1 (16:50) 0.4 (00:00) 4.3 13.61 (03:10) 8.89 (03:00) 2.6 2.6 0 0 0
09-02-2021 5 (09:50) 1.8 (00:00) 3.4 18.33 (11:50) 12.22 (11:50) 10.4 2.2 6 2.2 0
08-02-2021 5.9 (13:50) 2.3 (00:00) 4.1 12.5 (15:40) 7.5 (14:00) 5.6 4.2 0 1.4 0
07-02-2021 3.2 (14:10) -3.3 (-00:0) 0 9.44 (14:00) 6.67 (14:20) 1.8 0 0 0.2 1.6
06-02-2021 6.6 (00:00) -1 (-00:0) 2.8 8.33 (01:40) 5.56 (00:20) 8 1.2 5.2 1.6 0
05-02-2021 9.8 (15:20) 3.8 (00:00) 6.8 10.83 (19:20) 7.5 (21:40) 4.8 1.2 2.2 0 1.4
04-02-2021 6.1 (12:10) 3.1 (00:00) 4.6 6.94 (01:00) 4.17 (00:50) 7.4 0 0.2 6.6 0.6
03-02-2021 10.6 (15:50) 5.4 (00:00) 8 16.11 (06:30) 10.56 (06:40) 2.6 1.2 1.4 0 0
02-02-2021 8.6 (16:30) 6.9 (08:10) 7.8 13.33 (23:10) 7.5 (11:10) 1.4 0 0 0.8 0.6
01-02-2021 12.3 (14:30) 5.5 (00:00) 8.9 16.67 (09:00) 10.83 (15:10) 0 0 0 0 0
31-01-2021 12.7 (14:40) 1.3 (00:00) 7 17.5 (15:40) 10.83 (15:50) 0 0 0 0 0

Gráficas

Temp. máximas Temp. mínimas Temp. medias Precipitaciones Rachas de viento máximas Velocidades máximas media en intervalos de 10 minutos

Datos horarios

Fecha y hora oficial Temperatura (ºC) Velocidad del viento (km/h) Dirección del viento Racha (km/h) Dirección de racha Precipitación (mm) Presión (hPa) Tendencia (hPa) Humedad (%)
2021-03-01 23:00:00 -- -- -- -- -- -- -- -- --
2021-03-01 22:00:00 -- -- -- -- -- -- -- -- --
2021-03-01 21:00:00 -- -- -- -- -- -- -- -- --
2021-03-01 20:00:00 -- -- -- -- -- -- -- -- --
2021-03-01 19:00:00 7.9 19 Sudeste 30 Este 0.2 -- -- 89
2021-03-01 18:00:00 10.1 15 Este 23 Sudeste 0 -- -- 77
2021-03-01 17:00:00 10.3 11 Sur 19 Sur 0 -- -- 72
2021-03-01 16:00:00 10 10 Sur 22 Sudeste 0 -- -- 73
2021-03-01 15:00:00 9.9 13 Sudeste 23 Sudeste 0 -- -- 75
2021-03-01 14:00:00 7.8 6 Sudeste 15 Sudeste 0 -- -- 85
2021-03-01 13:00:00 6.7 12 Sudeste 19 Este 0 -- -- 87
2021-03-01 12:00:00 6.3 13 Sudeste 26 Sudeste 0 -- -- 91
2021-03-01 11:00:00 5 18 Sudeste 27 Sudeste 0 -- -- 96
2021-03-01 10:00:00 3.9 15 Este 23 Sudeste 0.4 -- -- 98
2021-03-01 09:00:00 3.2 11 Este 23 Este 0 -- -- 98
2021-03-01 08:00:00 2.9 13 Sudeste 27 Este 0 -- -- 97
2021-03-01 07:00:00 3.7 13 Este 25 Este 0 -- -- 97
2021-03-01 06:00:00 4.4 9 Este 12 Este 0.6 -- -- 99
2021-03-01 05:00:00 3.5 8 Oeste 26 Sudoeste 1.8 -- -- 97
2021-03-01 04:00:00 4.5 10 Sudeste 17 Sudeste 0 -- -- 98
2021-03-01 03:00:00 3.9 5 Sudeste 10 Sudeste 0 -- -- 98
2021-03-01 02:00:00 3.2 4 Este 9 Nordeste 0 -- -- 98
2021-03-01 01:00:00 2.1 5 Nordeste 8 Nordeste 0 -- -- 97
2021-03-01 00:00:00 2.3 8 Nordeste 9 Norte 0 -- -- 94
2021-02-28 23:00:00 2.3 8 Nordeste 10 Nordeste 0 -- -- 94
2021-02-28 22:00:00 2.2 5 Nordeste 8 Nordeste 0 -- -- 94
2021-02-28 21:00:00 2.8 5 Este 15 Este 0 -- -- 90
2021-02-28 20:00:00 3.7 9 Nordeste 27 Este 0 -- -- 87
2021-02-28 19:00:00 5.2 13 Este 24 Nordeste 0 -- -- 78
2021-02-28 18:00:00 6.9 15 Nordeste 30 Este 0 -- -- 71
2021-02-28 17:00:00 8.1 19 Nordeste 30 Este 0 -- -- 66
2021-02-28 16:00:00 8.6 19 Este 31 Nordeste 0 -- -- 63
2021-02-28 15:00:00 9.9 17 Este 30 Este 0 -- -- 61
2021-02-28 14:00:00 8.9 14 Este 28 Este 0 -- -- 62
2021-02-28 13:00:00 8.1 18 Este 35 Este 0 -- -- 61
2021-02-28 12:00:00 6.9 24 Este 34 Este 0 -- -- 67
2021-02-28 11:00:00 6 21 Este 32 Nordeste 0 -- -- 68
2021-02-28 10:00:00 4.3 20 Este 31 Nordeste 0 -- -- 76
2021-02-28 09:00:00 0.6 20 Nordeste 27 Nordeste 0 -- -- 87
2021-02-28 08:00:00 -2.6 2 Nordeste 13 Nordeste 0 -- -- 91
2021-02-28 07:00:00 -2.8 4 Nordeste 13 Nordeste 0 -- -- 91
2021-02-28 06:00:00 -2 8 Norte 14 Nordeste 0 -- -- 92
2021-02-28 05:00:00 -1.3 10 Nordeste 15 Nordeste 0 -- -- 96
2021-02-28 04:00:00 -0.8 9 Norte 14 Nordeste 0 -- -- 94
2021-02-28 03:00:00 0 4 Nordeste 14 Este 0 -- -- 89
2021-02-28 02:00:00 1.4 10 Este 21 Este 0 -- -- 83
2021-02-28 01:00:00 1.7 15 Sudeste 20 Sudeste 0 -- -- 75
2021-02-28 00:00:00 3 13 Este 19 Este 0 -- -- 60
2021-02-27 23:00:00 5 12 Este 26 Este 0 -- -- 47
2021-02-27 22:00:00 5.7 8 Este 26 Este 0 -- -- 48
2021-02-27 21:00:00 5.9 20 Nordeste 31 Nordeste 0 -- -- 55
2021-02-27 20:00:00 6.6 14 Nordeste 26 Este 0 -- -- 51
2021-02-27 19:00:00 8.1 17 Este 36 Este 0 -- -- 48
2021-02-27 18:00:00 10.7 23 Este 33 Este 0 -- -- 41
2021-02-27 17:00:00 12.6 16 Este 35 Este 0 -- -- 42
2021-02-27 16:00:00 13 23 Este 33 Este 0 -- -- 42
2021-02-27 15:00:00 12.9 20 Este 31 Este 0 -- -- 47
2021-02-27 14:00:00 11.6 20 Este 33 Nordeste 0 -- -- 64
2021-02-27 13:00:00 10.6 22 Nordeste 32 Nordeste 0 -- -- 69
2021-02-27 12:00:00 9.6 20 Este 36 Nordeste 0 -- -- 75
2021-02-27 11:00:00 8.6 20 Este 31 Este 0 -- -- 80
2021-02-27 10:00:00 6.8 18 Nordeste 32 Nordeste 0 -- -- 86
2021-02-27 09:00:00 4.8 16 Nordeste 27 Este 0 -- -- 92
2021-02-27 08:00:00 3.1 10 Nordeste 18 Nordeste 0 -- -- 96
2021-02-27 07:00:00 3.3 9 Nordeste 21 Nordeste 0 -- -- 96
2021-02-27 06:00:00 3.2 14 Nordeste 19 Nordeste 0 -- -- 97
2021-02-27 05:00:00 3.6 12 Nordeste 21 Nordeste 0 -- -- 96
2021-02-27 04:00:00 3.6 13 Nordeste 17 Nordeste 0 -- -- 97
2021-02-27 03:00:00 3.9 14 Nordeste 17 Nordeste 0 -- -- 96
2021-02-27 02:00:00 4.3 9 Nordeste 15 Nordeste 0 -- -- 95
2021-02-27 01:00:00 4.5 13 Nordeste 17 Nordeste 0 -- -- 95
2021-02-27 00:00:00 4.5 11 Nordeste 15 Nordeste 0 -- -- 95
2021-02-26 23:00:00 4.8 10 Nordeste 19 Norte 0 -- -- 93
2021-02-26 22:00:00 4.8 12 Nordeste 15 Nordeste 0 -- -- 94
2021-02-26 21:00:00 5.6 9 Nordeste 20 Este 0 -- -- 91
2021-02-26 20:00:00 6.8 10 Nordeste 16 Este 0 -- -- 89
2021-02-26 19:00:00 8.2 8 Nordeste 19 Este 0 -- -- 83
2021-02-26 18:00:00 10.5 15 Este 24 Sudeste 0 -- -- 69
2021-02-26 17:00:00 12 18 Este 24 Este 0 -- -- 64
2021-02-26 16:00:00 12.3 13 Este 27 Este 0 -- -- 64
2021-02-26 15:00:00 11.9 19 Nordeste 33 Este 0 -- -- 66
2021-02-26 14:00:00 11.3 19 Nordeste 33 Nordeste 0 -- -- 69
2021-02-26 13:00:00 10.8 22 Nordeste 30 Este 0 -- -- 76
2021-02-26 12:00:00 10.1 13 Este 27 Este 0 -- -- 77
2021-02-26 11:00:00 8.5 24 Nordeste 36 Nordeste 0 -- -- 83
2021-02-26 10:00:00 7.2 20 Nordeste 32 Nordeste 0 -- -- 90
2021-02-26 09:00:00 5.6 13 Este 25 Este 0 -- -- 95
2021-02-26 08:00:00 5.3 18 Este 29 Este 0 -- -- 95
2021-02-26 07:00:00 5.2 14 Nordeste 24 Este 0 -- -- 96
2021-02-26 06:00:00 5.6 14 Este 27 Este 0 -- -- 95
2021-02-26 05:00:00 5.7 14 Nordeste 24 Nordeste 0 -- -- 94
2021-02-26 04:00:00 5.8 13 Nordeste 26 Nordeste 0 -- -- 95
2021-02-26 03:00:00 5.9 18 Nordeste 28 Nordeste 0 -- -- 95
2021-02-26 02:00:00 5.8 13 Nordeste 23 Nordeste 0 -- -- 94
2021-02-26 01:00:00 6.1 11 Nordeste 19 Nordeste 0 -- -- 93
2021-02-26 00:00:00 6.2 10 Nordeste 22 Este 0 -- -- 93
2021-02-25 23:00:00 6.3 13 Nordeste 21 Nordeste 0 -- -- 93
2021-02-25 22:00:00 6.4 11 Nordeste 25 Nordeste 0 -- -- 91
2021-02-25 21:00:00 6.9 11 Nordeste 16 Nordeste 0 -- -- 89
2021-02-25 20:00:00 7.5 10 Nordeste 15 Nordeste 0 -- -- 87
2021-02-25 19:00:00 8.5 9 Nordeste 14 Nordeste 0 -- -- 82
2021-02-25 18:00:00 9.7 8 Este 18 Este 0 -- -- 74
2021-02-25 17:00:00 10.1 11 Este 16 Sudeste 0 -- -- 74
2021-02-25 16:00:00 10.2 9 Sudeste 17 Este 0 -- -- 74
2021-02-25 15:00:00 9.8 7 Este 17 Este 0 -- -- 73
2021-02-25 14:00:00 9.5 13 Sudeste 22 Sudeste 0 -- -- 74
2021-02-25 13:00:00 9.1 13 Sudeste 22 Sudeste 0 -- -- 78
2021-02-25 12:00:00 8.4 15 Sudeste 21 Este 0 -- -- 80
2021-02-25 11:00:00 6.9 13 Este 18 Este 0 -- -- 87
2021-02-25 10:00:00 5.4 7 Nordeste 11 Nordeste 0 -- -- 96
2021-02-25 09:00:00 4.6 6 Nordeste 9 Nordeste 0 -- -- 98
2021-02-25 08:00:00 3.7 3 Nordeste 10 Nordeste 0 -- -- 95
2021-02-25 07:00:00 3.9 5 Nordeste 9 Nordeste 0 -- -- 94
2021-02-25 06:00:00 4.1 4 Nordeste 11 Nordeste 0 -- -- 95
2021-02-25 05:00:00 4.6 3 Noroeste 10 Noroeste 0 -- -- 95
2021-02-25 04:00:00 5.9 5 Este 9 Este 0 -- -- 92
2021-02-25 03:00:00 6.5 4 Sudeste 10 Sur 0 -- -- 90
2021-02-25 02:00:00 6.6 7 Sudoeste 10 Sudoeste 0 -- -- 92
2021-02-25 01:00:00 5.5 4 Este 10 Sur 0 -- -- 91
2021-02-25 00:00:00 6.9 6 Sur 19 Sudoeste 0 -- -- 87
2021-02-24 23:00:00 7.6 11 Sudoeste 21 Sudoeste 0 -- -- 85
2021-02-24 22:00:00 7.5 10 Sur 17 Sur 0 -- -- 83
2021-02-24 21:00:00 7.4 6 Sudoeste 17 Sur 0 -- -- 82
2021-02-24 20:00:00 7 0 Calma 8 Oeste 0 -- -- 84
2021-02-24 19:00:00 9.9 5 Sudoeste 15 Sur 0 -- -- 72
2021-02-24 18:00:00 12.8 10 Sur 28 Sudoeste 0 -- -- 61
2021-02-24 17:00:00 13.8 16 Sudoeste 27 Sudoeste 0 -- -- 59
2021-02-24 16:00:00 13.3 13 Sur 31 Sudoeste 0 -- -- 66
2021-02-24 15:00:00 12 16 Sudoeste 30 Sur 0 -- -- 65
2021-02-24 14:00:00 11.7 17 Sur 27 Sudoeste 0 -- -- 65
2021-02-24 13:00:00 10.9 15 Sur 24 Sur 0 -- -- 67
2021-02-24 12:00:00 9.9 13 Sur 23 Sur 0 -- -- 73
2021-02-24 11:00:00 7.7 11 Sur 16 Sudeste 0 -- -- 81
2021-02-24 10:00:00 5.4 6 Sudeste 17 Sudeste 0 -- -- 90
2021-02-24 09:00:00 1.2 0 Calma 6 Sudoeste 0 -- -- 99
2021-02-24 08:00:00 0.4 4 Sudoeste 8 Sudoeste 0 -- -- 98
2021-02-24 07:00:00 1.3 6 Sudoeste 9 Sudoeste 0 -- -- 100
2021-02-24 06:00:00 -1.3 0 Calma -- -- 0 -- -- 96
2021-02-24 05:00:00 0.1 0 Calma 8 Sur 0 -- -- 95
2021-02-24 04:00:00 0.8 4 Sur 8 Sudoeste 0 -- -- 96
2021-02-24 03:00:00 2.9 5 Sudoeste 11 Sur 0 -- -- 91
2021-02-24 02:00:00 3.6 7 Sur 12 Sur 0 -- -- 88
2021-02-24 01:00:00 2.9 5 Sur 9 Sudoeste 0 -- -- 91
2021-02-24 00:00:00 4 0 Calma 14 Sur 0 -- -- 80
2021-02-23 23:00:00 4.7 9 Sudoeste 17 Sudoeste 0 -- -- 80
2021-02-23 22:00:00 1.3 2 Sur 6 Sur 0 -- -- 83
2021-02-23 21:00:00 1.9 0 Calma -- -- 0 -- -- 83
2021-02-23 20:00:00 3.8 0 Calma 5 Sudoeste 0 -- -- 78
2021-02-23 19:00:00 7.7 4 Oeste 14 Sudoeste 0 -- -- 64
2021-02-23 18:00:00 11.1 8 Sur 22 Sudoeste 0 -- -- 50
2021-02-23 17:00:00 11.4 11 Sudoeste 22 Sudoeste 0 -- -- 47
2021-02-23 16:00:00 11.4 9 Sur 23 Sur 0 -- -- 49
2021-02-23 15:00:00 10.6 11 Sur 20 Sudoeste 0 -- -- 42
2021-02-23 14:00:00 9.7 12 Sudoeste 22 Sudoeste 0 -- -- 42
2021-02-23 13:00:00 8.9 8 Sur 19 Este 0 -- -- 58
2021-02-23 12:00:00 8 6 Sudeste 13 Sur 0 -- -- 58
2021-02-23 11:00:00 5.9 5 Sudeste 9 Sudeste 0 -- -- 76
2021-02-23 10:00:00 3 4 Nordeste 6 Norte 0 -- -- 88
2021-02-23 09:00:00 -0.5 0 Calma -- -- 0 -- -- 100
2021-02-23 08:00:00 -2.7 0 Calma -- -- 0 -- -- 98
2021-02-23 07:00:00 -3.1 0 Calma 8 Oeste 0 -- -- 98
2021-02-23 06:00:00 -2.7 0 Calma -- -- 0 -- -- 97
2021-02-23 05:00:00 -2.7 0 Calma -- -- 0 -- -- 95
2021-02-23 04:00:00 -1.9 0 Calma -- -- 0 -- -- 94
2021-02-23 03:00:00 -2.1 0 Calma -- -- 0 -- -- 96
2021-02-23 02:00:00 -1.8 0 Calma -- -- 0 -- -- 94
2021-02-23 01:00:00 -1.5 0 Calma 6 Oeste 0 -- -- 95
2021-02-23 00:00:00 -1 0 Calma 7 Nordeste 0 -- -- 92
2021-02-22 23:00:00 0.2 5 Sudoeste 11 Sudoeste 0 -- -- 90
2021-02-22 22:00:00 1.1 6 Sudoeste 10 Sudoeste 0 -- -- 88
2021-02-22 21:00:00 1.7 7 Sudoeste 12 Sudoeste 0 -- -- 86
2021-02-22 20:00:00 2 0 Calma 9 Sudoeste 0 -- -- 82
2021-02-22 19:00:00 5.7 0 Calma 13 Sudoeste 0 -- -- 70
2021-02-22 18:00:00 8.7 11 Sudoeste 22 Oeste 0 -- -- 53
2021-02-22 17:00:00 9.3 13 Sudoeste 24 Oeste 0 -- -- 53
2021-02-22 16:00:00 8.9 15 Oeste 26 Oeste 0 -- -- 53
2021-02-22 15:00:00 9 8 Sur 18 Sudeste 0 -- -- 66
2021-02-22 14:00:00 7.8 3 Este 16 Sudeste 0 -- -- 73
2021-02-22 13:00:00 7.3 8 Sudeste 18 Sudeste 0 -- -- 70
2021-02-22 12:00:00 6.4 9 Sudeste 17 Sudeste 0 -- -- 78
2021-02-22 11:00:00 5.3 3 Nordeste 13 Nordeste 0 -- -- 82
2021-02-22 10:00:00 3.6 3 Norte 10 Norte 0 -- -- 91
2021-02-22 09:00:00 1 5 Noroeste 13 Oeste 0 -- -- 98
2021-02-22 08:00:00 0.7 8 Oeste 13 Oeste 0 -- -- 98
2021-02-22 07:00:00 1.4 6 Oeste 15 Oeste 0 -- -- 97
2021-02-22 06:00:00 1.8 8 Oeste 13 Oeste 0 -- -- 98
2021-02-22 05:00:00 2.1 8 Oeste 16 Oeste 0 -- -- 98
2021-02-22 04:00:00 2.2 5 Oeste 16 Noroeste 0.2 -- -- 96
2021-02-22 03:00:00 2.2 7 Noroeste 22 Noroeste 0 -- -- 96
2021-02-22 02:00:00 2.2 7 Noroeste 29 Noroeste 0 -- -- 95
2021-02-22 01:00:00 1.8 10 Noroeste 22 Noroeste 1.2 -- -- 98
2021-02-22 00:00:00 1.5 6 Norte 29 Norte 1.2 -- -- 98
2021-02-21 23:00:00 2.5 14 Norte 31 Noroeste 0.6 -- -- 97
2021-02-21 22:00:00 3 5 Noroeste 16 Noroeste 0.6 -- -- 97
2021-02-21 21:00:00 4.3 4 Noroeste 10 Noroeste 1.4 -- -- 99
2021-02-21 20:00:00 4.5 6 Oeste 18 Oeste 1.4 -- -- 99
2021-02-21 19:00:00 5 11 Oeste 22 Sudoeste 1.4 -- -- 97
2021-02-21 18:00:00 5.8 10 Oeste 17 Oeste 2.2 -- -- 97
2021-02-21 17:00:00 7.2 5 Sudoeste 11 Sur 1.2 -- -- 96
2021-02-21 16:00:00 7.8 9 Sur 23 Sudeste 0.4 -- -- 89
2021-02-21 15:00:00 7.5 14 Sudeste 23 Sudeste 0.4 -- -- 85
2021-02-21 14:00:00 8.4 9 Este 16 Este 0 -- -- 79
2021-02-21 13:00:00 8.9 12 Este 23 Sudeste 0 -- -- 74
2021-02-21 12:00:00 8.3 16 Sudeste 28 Sudeste 0 -- -- 72
2021-02-21 11:00:00 8 17 Sudeste 26 Sudeste 0 -- -- 74
2021-02-21 10:00:00 7 14 Sudeste 22 Sudeste 0 -- -- 79
2021-02-21 09:00:00 6.3 14 Sudeste 21 Sudeste 0 -- -- 81
2021-02-21 08:00:00 5.6 6 Sudeste 17 Sudeste 0 -- -- 84
2021-02-21 07:00:00 6.4 12 Sudeste 20 Sudeste 0 -- -- 80
2021-02-21 06:00:00 6.5 8 Sudeste 18 Sudeste 0 -- -- 78
2021-02-21 05:00:00 6.7 11 Sudeste 20 Sudeste 0 -- -- 72
2021-02-21 04:00:00 6.7 11 Sudeste 16 Sudeste 0 -- -- 65
2021-02-21 03:00:00 6.5 8 Este 14 Sudeste 0 -- -- 64
2021-02-21 02:00:00 6.7 6 Sudeste 10 Sudeste 0 -- -- 63
2021-02-21 01:00:00 6.9 4 Sudeste 12 Sudeste 0 -- -- 68
2021-02-21 00:00:00 7.1 6 Sur 10 Sudeste 0 -- -- 69
2021-02-20 23:00:00 7.5 5 Sudeste 11 Sudeste 0 -- -- 69
2021-02-20 22:00:00 8.1 3 Este 9 Sudeste 0 -- -- 67
2021-02-20 21:00:00 9 6 Sur 19 Sur 0 -- -- 63
2021-02-20 20:00:00 9.1 11 Sur 19 Sur 0 -- -- 65
2021-02-20 19:00:00 10.3 13 Sur 31 Sur 0 -- -- 60
2021-02-20 18:00:00 11.4 17 Sur 40 Sur 0 -- -- 53
2021-02-20 17:00:00 12.5 24 Sur 43 Sur 0 -- -- 46
2021-02-20 16:00:00 12 19 Sur 38 Sudoeste 0 -- -- 54
2021-02-20 15:00:00 10.5 17 Sudoeste 35 Sudoeste 0 -- -- 62
2021-02-20 14:00:00 9.2 18 Sudoeste 31 Sudoeste 0 -- -- 65
2021-02-20 13:00:00 9.1 21 Sudoeste 39 Sudoeste 0 -- -- 64
2021-02-20 12:00:00 9.9 24 Sudoeste 41 Sudoeste 0 -- -- 61
2021-02-20 11:00:00 7.6 15 Sudoeste 25 Sudoeste 0 -- -- 68
2021-02-20 10:00:00 6.8 13 Sudoeste 20 Sudoeste 0 -- -- 73
2021-02-20 09:00:00 3.9 5 Sudoeste 15 Sudoeste 0 -- -- 81
2021-02-20 08:00:00 3.8 10 Sudoeste 18 Sudoeste 0 -- -- 82
2021-02-20 07:00:00 4.5 11 Sur 18 Sur 0 -- -- 79
2021-02-20 06:00:00 4.9 9 Sudoeste 21 Sudoeste 0 -- -- 83
2021-02-20 05:00:00 4.5 10 Sudoeste 16 Sudoeste 0 -- -- 88
2021-02-20 04:00:00 5 10 Sudoeste 24 Sudoeste 0 -- -- 85
2021-02-20 03:00:00 5.8 15 Sudoeste 35 Sudoeste 0 -- -- 83
2021-02-20 02:00:00 5.4 13 Sudoeste 23 Sur 0 -- -- 89
2021-02-20 01:00:00 5.7 10 Sudoeste 28 Sudoeste 0 -- -- 87
2021-02-20 00:00:00 6.2 13 Sudoeste 30 Sudoeste 0 -- -- 84
2021-02-19 23:00:00 6.7 18 Sudoeste 30 Sudoeste 0 -- -- 78
2021-02-19 22:00:00 6.9 14 Sudoeste 20 Sudoeste 0 -- -- 82
2021-02-19 21:00:00 5 2 Oeste 10 Sudoeste 0 -- -- 89
2021-02-19 20:00:00 6.3 5 Sudoeste 11 Sudoeste 0 -- -- 84
2021-02-19 19:00:00 7.9 6 Sudoeste 22 Sudoeste 0 -- -- 75
2021-02-19 18:00:00 9.5 14 Sudoeste 34 Sudoeste 0 -- -- 67
2021-02-19 17:00:00 10.3 20 Sudoeste 37 Sudoeste 0 -- -- 62
2021-02-19 16:00:00 10.7 19 Sudoeste 37 Sudoeste 0 -- -- 69
2021-02-19 15:00:00 11.4 22 Sudoeste 43 Oeste 0 -- -- 63
2021-02-19 14:00:00 11.1 27 Sudoeste 41 Sudoeste 0 -- -- 60
2021-02-19 13:00:00 10.3 23 Sudoeste 33 Sur 0 -- -- 70
2021-02-19 12:00:00 7.2 16 Sudoeste 29 Sudoeste 0 -- -- 93
2021-02-19 11:00:00 6.7 19 Sudoeste 39 Sudoeste 0 -- -- 94
2021-02-19 10:00:00 6.2 16 Sudoeste 28 Sudoeste 0 -- -- 98
2021-02-19 09:00:00 6.4 16 Sudoeste 27 Sudoeste 0 -- -- 100
2021-02-19 08:00:00 6.3 17 Sudoeste 25 Sudoeste 0 -- -- 100
2021-02-19 07:00:00 6.5 11 Sudoeste 22 Sudoeste 0 -- -- 100
2021-02-19 06:00:00 6.5 14 Sudoeste 23 Sudoeste 0.2 -- -- 100
2021-02-19 05:00:00 6.3 9 Sudoeste 21 Sudoeste 0.2 -- -- 100
2021-02-19 04:00:00 6.5 12 Sudoeste 21 Sudoeste 0 -- -- 100
2021-02-19 03:00:00 6.6 13 Sudoeste 23 Sudoeste 0 -- -- 100
2021-02-19 02:00:00 6.7 13 Sudoeste 29 Sudoeste 0 -- -- 100
2021-02-19 01:00:00 6.9 17 Sudoeste 31 Sudoeste 0 -- -- 100
2021-02-19 00:00:00 7.1 16 Sudoeste 29 Sudoeste 0.6 -- -- 100
2021-02-18 23:00:00 7.1 15 Sudoeste 29 Sudoeste 0.2 -- -- 100
2021-02-18 22:00:00 7 19 Sudoeste 33 Sudoeste 0.4 -- -- 100
2021-02-18 21:00:00 6.9 10 Sudoeste 24 Sudoeste 0 -- -- 99
2021-02-18 20:00:00 7 17 Sudoeste 31 Sudoeste 0 -- -- 98
2021-02-18 19:00:00 7.4 13 Sudoeste 40 Sudoeste 0 -- -- 95
2021-02-18 18:00:00 8.6 26 Sudoeste 39 Sudoeste 0 -- -- 89
2021-02-18 17:00:00 8 23 Sudoeste 53 Oeste 1.6 -- -- 96
2021-02-18 16:00:00 9.2 26 Sudoeste 49 Sudoeste 0 -- -- 83
2021-02-18 15:00:00 9.1 31 Sudoeste 54 Sudoeste 0 -- -- 82
2021-02-18 14:00:00 8.7 29 Sudoeste 54 Sudoeste 0 -- -- 85
2021-02-18 13:00:00 7.7 24 Sudoeste 46 Sudoeste 0 -- -- 90
2021-02-18 12:00:00 6.9 28 Sudoeste 43 Sudoeste 0 -- -- 93
2021-02-18 11:00:00 6.9 27 Sudoeste 43 Sudoeste 0 -- -- 92
2021-02-18 10:00:00 5.6 24 Sudoeste 38 Sudoeste 0 -- -- 96
2021-02-18 09:00:00 5.4 19 Sudoeste 32 Sudoeste 0 -- -- 98
2021-02-18 08:00:00 5.7 17 Sudoeste 27 Sudoeste 0 -- -- 97
2021-02-18 07:00:00 6 17 Sudoeste 34 Sudoeste 0 -- -- 97
2021-02-18 06:00:00 6.3 21 Sudoeste 40 Sudoeste 0 -- -- 98
2021-02-18 05:00:00 6.5 23 Sudoeste 42 Sudoeste 0.2 -- -- 98
2021-02-18 04:00:00 6.6 22 Sudoeste 38 Sudoeste 0 -- -- 98
2021-02-18 03:00:00 7.1 24 Sudoeste 37 Sudoeste 0 -- -- 95
2021-02-18 02:00:00 7.1 20 Sudoeste 33 Sudoeste 0 -- -- 95
2021-02-18 01:00:00 7.5 21 Sudoeste 36 Sudoeste 0 -- -- 94
2021-02-18 00:00:00 7.8 23 Sudoeste 41 Sudoeste 0 -- -- 91
2021-02-17 23:00:00 8 20 Sudoeste 30 Oeste 0 -- -- 91
2021-02-17 22:00:00 7.8 12 Sudoeste 18 Sudoeste 0 -- -- 98
2021-02-17 21:00:00 7.7 6 Sur 11 Sur 0 -- -- 97
2021-02-17 20:00:00 8.2 7 Sudoeste 26 Sudoeste 0 -- -- 97
2021-02-17 19:00:00 8.5 13 Sudoeste 27 Sudoeste 0 -- -- 94
2021-02-17 18:00:00 8.9 15 Sudoeste 30 Sudoeste 0 -- -- 93
2021-02-17 17:00:00 9.2 18 Sudoeste 34 Sudoeste 0 -- -- 89
2021-02-17 16:00:00 9.5 19 Sudoeste 32 Sudoeste 0 -- -- 85
2021-02-17 15:00:00 9.7 19 Sudoeste 36 Sudoeste 0 -- -- 86
2021-02-17 14:00:00 9.1 18 Sudoeste 31 Sudoeste 0 -- -- 90
2021-02-17 13:00:00 8.3 20 Sudoeste 28 Oeste 0 -- -- 93
2021-02-17 12:00:00 6.9 12 Sudoeste 22 Sudoeste 0 -- -- 100
2021-02-17 11:00:00 6.8 13 Sudoeste 20 Sudoeste 0 -- -- 100
2021-02-17 10:00:00 6.2 10 Sudoeste 22 Sudoeste 0 -- -- 100
2021-02-17 09:00:00 5.6 4 Sudeste 8 Sur 0 -- -- 100
2021-02-17 08:00:00 5.2 3 Sudoeste 13 Oeste 0 -- -- 100
2021-02-17 07:00:00 5.3 8 Oeste 14 Oeste 0 -- -- 100
2021-02-17 06:00:00 5 0 Calma -- -- 0 -- -- 100
2021-02-17 05:00:00 4.9 0 Calma 6 Oeste 0 -- -- 100
2021-02-17 04:00:00 5.2 5 Oeste 13 Oeste 0 -- -- 100
2021-02-17 03:00:00 5.5 5 Oeste 10 Oeste 0 -- -- 100
2021-02-17 02:00:00 5.5 4 Oeste 12 Oeste 0 -- -- 100
2021-02-17 01:00:00 5.7 6 Oeste 20 Oeste 0 -- -- 100
2021-02-17 00:00:00 5.7 10 Oeste 20 Oeste 0 -- -- 100
2021-02-16 23:00:00 5.4 5 Oeste 11 Oeste 0 -- -- 100
2021-02-16 22:00:00 5.1 4 Oeste 9 Sudoeste 0 -- -- 98
2021-02-16 21:00:00 5.7 6 Oeste 10 Noroeste 0 -- -- 100
2021-02-16 20:00:00 5.7 0 Calma -- -- 0 -- -- 97
2021-02-16 19:00:00 7 0 Calma 9 Oeste 0 -- -- 96
2021-02-16 18:00:00 7.4 4 Oeste 14 Oeste 1 -- -- 96
2021-02-16 17:00:00 8.5 16 Oeste 37 Sudoeste 0.2 -- -- 87
2021-02-16 16:00:00 8.8 25 Sudoeste 44 Sudoeste 0 -- -- 88
2021-02-16 15:00:00 8.6 24 Sudoeste 42 Sudoeste 0 -- -- 88
2021-02-16 14:00:00 8.4 23 Sudoeste 42 Sudoeste 0 -- -- 88
2021-02-16 13:00:00 7.9 27 Sudoeste 47 Sudoeste 0 -- -- 88
2021-02-16 12:00:00 8.5 28 Sudoeste 43 Sudoeste 0 -- -- 83
2021-02-16 11:00:00 7.5 23 Sudoeste 40 Sudoeste 0 -- -- 85
2021-02-16 10:00:00 6.2 21 Sudoeste 33 Sudoeste 0 -- -- 88
2021-02-16 09:00:00 4 9 Sudoeste 21 Sur 0 -- -- 95
2021-02-16 08:00:00 2.6 13 Sudoeste 21 Sur 0 -- -- 100
2021-02-16 07:00:00 -0.2 0 Calma -- -- 0 -- -- 98
2021-02-16 06:00:00 0.7 0 Calma 4 Nordeste 0 -- -- 97
2021-02-16 05:00:00 2.5 3 Nordeste 5 Nordeste 0 -- -- 94
2021-02-16 04:00:00 2.9 3 Nordeste 6 Nordeste 0 -- -- 95
2021-02-16 03:00:00 3.9 3 Nordeste 7 Nordeste 0 -- -- 95
2021-02-16 02:00:00 4.3 5 Nordeste 8 Este 0 -- -- 94
2021-02-16 01:00:00 4.6 0 Calma 8 Sudeste 0 -- -- 91
2021-02-16 00:00:00 6 6 Sur 14 Sur 0 -- -- 89
2021-02-15 23:00:00 6 9 Sur 11 Sur 0 -- -- 89
2021-02-15 22:00:00 4.9 5 Nordeste 8 Nordeste 0 -- -- 91
2021-02-15 21:00:00 5.5 4 Nordeste 6 Nordeste 0 -- -- 89
2021-02-15 20:00:00 6.3 3 Nordeste 3 Nordeste 0 -- -- 86
2021-02-15 19:00:00 9 2 Sudeste 10 Sur 0 -- -- 80
2021-02-15 18:00:00 12.7 10 Sur 18 Sur 0 -- -- 64
2021-02-15 17:00:00 13.3 12 Sudeste 19 Sudeste 0 -- -- 60
2021-02-15 16:00:00 13.2 13 Sudeste 19 Sudeste 0 -- -- 63
2021-02-15 15:00:00 13.3 9 Sudeste 18 Sudeste 0 -- -- 68
2021-02-15 14:00:00 12.3 8 Sudeste 16 Sudeste 0 -- -- 70
2021-02-15 13:00:00 11 6 Sudeste 12 Sudeste 0 -- -- 72
2021-02-15 12:00:00 9.3 5 Este 11 Este 0 -- -- 78
2021-02-15 11:00:00 6.8 6 Nordeste 10 Este 0 -- -- 91
2021-02-15 10:00:00 5.2 5 Nordeste 7 Este 0 -- -- 100
2021-02-15 09:00:00 2.9 3 Nordeste 7 Este 0 -- -- 100
2021-02-15 08:00:00 2.8 4 Este 8 Nordeste 0 -- -- 100
2021-02-15 07:00:00 3 4 Nordeste 8 Norte 0 -- -- 100
2021-02-15 06:00:00 3.5 6 Nordeste 8 Nordeste 0 -- -- 100
2021-02-15 05:00:00 3.7 0 Calma 5 Nordeste 0 -- -- 100
2021-02-15 04:00:00 3.5 5 Nordeste 6 Nordeste 0 -- -- 100
2021-02-15 03:00:00 4.1 0 Calma 4 Nordeste 0 -- -- 100
2021-02-15 02:00:00 4.3 0 Calma 4 Nordeste 0 -- -- 99
2021-02-15 01:00:00 3.8 3 Nordeste 5 Nordeste 0 -- -- 99
2021-02-15 00:00:00 4.6 0 Calma 8 Nordeste 0 -- -- 95
2021-02-14 23:00:00 6.2 7 Nordeste 10 Norte 0 -- -- 96
2021-02-14 22:00:00 6.4 9 Norte 12 Nordeste 0 -- -- 96
2021-02-14 21:00:00 6.5 8 Nordeste 11 Nordeste 0 -- -- 95
2021-02-14 20:00:00 7.1 5 Nordeste 7 Nordeste 0 -- -- 93
2021-02-14 19:00:00 8.5 5 Este 8 Este 0 -- -- 91
2021-02-14 18:00:00 9.5 4 Este 8 Sudeste 0 -- -- 87
2021-02-14 17:00:00 10.3 6 Sudeste 12 Sudeste 0 -- -- 85
2021-02-14 16:00:00 10 6 Sudeste 14 Sudeste 0 -- -- 86
2021-02-14 15:00:00 9.1 7 Sudoeste 14 Sudoeste 0 -- -- 89
2021-02-14 14:00:00 8.1 8 Sur 10 Sur 0 -- -- 99
2021-02-14 13:00:00 7.1 4 Sudeste 7 Sur 0 -- -- 100
2021-02-14 12:00:00 6.1 2 Sudoeste 6 Oeste 0 -- -- 100
2021-02-14 11:00:00 4.4 0 Calma 6 Este 0 -- -- 100
2021-02-14 10:00:00 2.8 0 Calma 7 Sur 0 -- -- 100
2021-02-14 09:00:00 1 0 Calma 0 Calma 0.2 -- -- 100
2021-02-14 08:00:00 1.2 0 Calma -- -- 0 -- -- 100
2021-02-14 07:00:00 0.2 0 Calma -- -- 0 -- -- 100
2021-02-14 06:00:00 0.6 0 Calma -- -- 0 -- -- 100
2021-02-14 05:00:00 0.8 0 Calma 6 Noroeste 0 -- -- 100
2021-02-14 04:00:00 0.5 0 Calma 5 Norte 0 -- -- 100
2021-02-14 03:00:00 0.6 4 Norte 6 Norte 0 -- -- 100
2021-02-14 02:00:00 0.7 0 Calma 4 Noroeste 0 -- -- 99
2021-02-14 01:00:00 1.3 2 Norte 6 Norte 0 -- -- 98
2021-02-14 00:00:00 2.6 3 Norte 6 Norte 0 -- -- 97
2021-02-13 23:00:00 3.6 3 Nordeste 4 Norte 0 -- -- 98
2021-02-13 22:00:00 4.5 0 Calma 11 Oeste 0 -- -- 96
2021-02-13 21:00:00 5.5 7 Oeste 10 Oeste 0 -- -- 94
2021-02-13 20:00:00 6.3 7 Oeste 11 Sudoeste 0 -- -- 93
2021-02-13 19:00:00 8.2 5 Sudoeste 19 Sudoeste 0 -- -- 85
2021-02-13 18:00:00 10.7 13 Oeste 24 Oeste 0 -- -- 76
2021-02-13 17:00:00 10.6 13 Oeste 28 Oeste 0 -- -- 76
2021-02-13 16:00:00 11.2 16 Oeste 23 Oeste 0 -- -- 70
2021-02-13 15:00:00 10.6 18 Sudoeste 26 Sudoeste 0 -- -- 72
2021-02-13 14:00:00 9.7 16 Sudoeste 21 Sudoeste 0 -- -- 72
2021-02-13 13:00:00 8.4 8 Sudoeste 19 Sudoeste 0 -- -- 80
2021-02-13 08:00:00 -- -- -- -- -- -- -- -- --
2021-02-13 07:00:00 0.1 0 Calma 9 Norte 0 -- -- 100
2021-02-13 06:00:00 1 0 Calma 8 Norte 0 -- -- 100
2021-02-13 05:00:00 1.1 4 Nordeste 9 Nordeste 0 -- -- 100
2021-02-13 04:00:00 1.6 6 Norte 9 Norte 0 -- -- 99
2021-02-13 03:00:00 0.5 4 Nordeste 6 Norte 0 -- -- 99
2021-02-13 02:00:00 1.1 0 Calma 5 Nordeste 0 -- -- 94
2021-02-13 01:00:00 2 3 Nordeste 6 Nordeste 0 -- -- 97
2021-02-13 00:00:00 1.7 5 Nordeste 16 Sudeste 0 -- -- 97
2021-02-12 23:00:00 2.1 0 Calma 6 Noroeste 0 -- -- 96
2021-02-12 22:00:00 1.9 4 Oeste 8 Oeste 0 -- -- 94
2021-02-12 21:00:00 3.5 5 Oeste 9 Oeste 0 -- -- 94
2021-02-12 20:00:00 4.8 4 Oeste 14 Oeste 0 -- -- 86
2021-02-12 19:00:00 7.2 5 Noroeste 10 Noroeste 0 -- -- 72
2021-02-12 18:00:00 10.3 6 Noroeste 22 Norte 0 -- -- 61
2021-02-12 17:00:00 11.1 13 Noroeste 26 Noroeste 0 -- -- 58
2021-02-12 16:00:00 11.4 13 Noroeste 28 Noroeste 0 -- -- 60
2021-02-12 15:00:00 10.4 12 Noroeste 30 Oeste 0 -- -- 69
2021-02-12 14:00:00 10.7 15 Oeste 33 Sudoeste 0 -- -- 74
2021-02-12 13:00:00 9.8 20 Oeste 32 Oeste 0 -- -- 79
2021-02-12 12:00:00 8.4 18 Oeste 30 Oeste 0 -- -- 87
2021-02-12 11:00:00 6.1 15 Oeste 28 Oeste 0 -- -- 99
2021-02-12 10:00:00 5.8 13 Oeste 32 Oeste 0 -- -- 99
2021-02-12 09:00:00 5.8 18 Oeste 35 Oeste 0.2 -- -- 98
2021-02-12 08:00:00 6 14 Oeste 24 Oeste 0 -- -- 99
2021-02-12 07:00:00 6.2 13 Oeste 35 Oeste 0.8 -- -- 99
2021-02-12 06:00:00 6.9 18 Oeste 30 Oeste 0.4 -- -- 100
2021-02-12 05:00:00 7.2 17 Oeste 25 Oeste 0.2 -- -- 100
2021-02-12 04:00:00 7.6 17 Oeste 47 Sudoeste 1 -- -- 100
2021-02-12 03:00:00 8.3 32 Sudoeste 51 Sudoeste 0.2 -- -- 100
2021-02-12 02:00:00 8.4 28 Sudoeste 49 Sudoeste 1.2 -- -- 100
2021-02-12 01:00:00 8.4 19 Sudoeste 31 Sur 0.2 -- -- 100
2021-02-12 00:00:00 8.7 14 Sudoeste 32 Sudoeste 0 -- -- 100
2021-02-11 23:00:00 9.1 19 Sudoeste 33 Sudoeste 0 -- -- 99
2021-02-11 22:00:00 9.2 17 Sudoeste 31 Sudoeste 0.2 -- -- 100
2021-02-11 21:00:00 9.3 12 Sudoeste 23 Sudoeste 0 -- -- 99
2021-02-11 20:00:00 9.5 12 Sudoeste 21 Sudoeste 0.4 -- -- 98
2021-02-11 19:00:00 9.9 8 Sudoeste 19 Sudoeste 0.2 -- -- 98
2021-02-11 18:00:00 10.5 11 Sudoeste 23 Sudoeste 0.2 -- -- 95
2021-02-11 17:00:00 10.5 8 Sudoeste 20 Oeste 0 -- -- 93
2021-02-11 16:00:00 10.8 13 Sudoeste 26 Sudoeste 0 -- -- 87
2021-02-11 15:00:00 10.3 15 Oeste 26 Oeste 0 -- -- 90
2021-02-11 14:00:00 7.7 12 Oeste 27 Sudoeste 0 -- -- 100
2021-02-11 13:00:00 7.2 15 Sudoeste 26 Sudoeste 0 -- -- 100
2021-02-11 12:00:00 6.6 8 Oeste 13 Sudoeste 0 -- -- 100
2021-02-11 11:00:00 5.9 9 Oeste 14 Sudoeste 0 -- -- 100
2021-02-11 10:00:00 5.5 8 Sudoeste 12 Oeste 0 -- -- 100
2021-02-11 09:00:00 4.9 3 Oeste 6 Oeste 0 -- -- 100
2021-02-11 08:00:00 4.7 0 Calma 5 Oeste 0 -- -- 100
2021-02-11 07:00:00 4.6 5 Oeste 9 Sudoeste 0 -- -- 100
2021-02-11 06:00:00 4.5 5 Sudoeste 9 Oeste 0 -- -- 98
2021-02-11 05:00:00 4.5 0 Calma 8 Oeste 0 -- -- 98
2021-02-11 04:00:00 4.4 5 Oeste 15 Oeste 0 -- -- 97
2021-02-11 03:00:00 4.6 12 Oeste 21 Sudoeste 0 -- -- 95
2021-02-11 02:00:00 4.8 13 Oeste 21 Oeste 0 -- -- 92
2021-02-11 01:00:00 3.9 8 Oeste 11 Oeste 0 -- -- 93
2021-02-11 00:00:00 4.3 7 Oeste 13 Oeste 0 -- -- 85
2021-02-10 23:00:00 3.8 8 Oeste 13 Oeste 0 -- -- 84
2021-02-10 22:00:00 4.2 9 Oeste 15 Oeste 0 -- -- 85
2021-02-10 21:00:00 3.9 5 Oeste 12 Oeste 0 -- -- 89
2021-02-10 20:00:00 4.5 3 Sudoeste 13 Oeste 0 -- -- 87
2021-02-10 19:00:00 5.1 8 Oeste 20 Oeste 0 -- -- 84
2021-02-10 18:00:00 6.6 13 Oeste 31 Oeste 0 -- -- 77
2021-02-10 17:00:00 8.1 22 Oeste 30 Oeste 0 -- -- 70
2021-02-10 16:00:00 7.2 20 Oeste 40 Sudoeste 0 -- -- 73
2021-02-10 15:00:00 7.9 24 Oeste 38 Oeste 0 -- -- 71
2021-02-10 14:00:00 6.7 23 Oeste 34 Oeste 0 -- -- 78
2021-02-10 13:00:00 6.1 22 Oeste 36 Oeste 0 -- -- 79
2021-02-10 12:00:00 4.7 18 Oeste 36 Oeste 0 -- -- 85
2021-02-10 11:00:00 3.7 21 Oeste 34 Oeste 0 -- -- 88
2021-02-10 10:00:00 2 18 Oeste 34 Oeste 0 -- -- 96
2021-02-10 09:00:00 0.7 14 Oeste 24 Sudoeste 0 -- -- 100
2021-02-10 08:00:00 0.7 13 Oeste 32 Oeste 0 -- -- 100
2021-02-10 07:00:00 0.7 18 Oeste 35 Oeste 0 -- -- 100
2021-02-10 06:00:00 0.4 11 Oeste 28 Oeste 0 -- -- 100
2021-02-10 05:00:00 0.7 19 Oeste 37 Oeste 0 -- -- 100
2021-02-10 04:00:00 1 20 Oeste 49 Oeste 0.6 -- -- 100
2021-02-10 03:00:00 2 32 Sudoeste 47 Sudoeste 1.6 -- -- 100
2021-02-10 02:00:00 2.7 18 Sudoeste 33 Sudoeste 0.2 -- -- 100
2021-02-10 01:00:00 2.4 20 Sudoeste 32 Sudoeste 0.2 -- -- 100
2021-02-10 00:00:00 2.1 18 Sudoeste 33 Oeste 0 -- -- 99
2021-02-09 23:00:00 2 24 Sudoeste 40 Sudoeste 0 -- -- 100
2021-02-09 22:00:00 1.9 26 Sudoeste 51 Sudoeste 0 -- -- 98
2021-02-09 21:00:00 2.2 30 Sudoeste 49 Sudoeste 0 -- -- 99
2021-02-09 20:00:00 2.2 21 Sudoeste 35 Oeste 0 -- -- 99
2021-02-09 19:00:00 2.7 17 Sudoeste 32 Sudoeste 0 -- -- 97
2021-02-09 18:00:00 3.6 22 Sudoeste 34 Sudoeste 0 -- -- 94
2021-02-09 17:00:00 3.7 18 Sudoeste 37 Sudoeste 0 -- -- 96
2021-02-09 16:00:00 3.6 26 Sudoeste 42 Sudoeste 0 -- -- 96
2021-02-09 15:00:00 2.9 23 Sudoeste 38 Sudoeste 0 -- -- 100
2021-02-09 14:00:00 2.4 17 Oeste 44 Oeste 0.4 -- -- 100
2021-02-09 13:00:00 2.6 21 Oeste 42 Oeste 1.8 -- -- 100
2021-02-09 12:00:00 3.2 39 Oeste 66 Oeste 3.6 -- -- 96
2021-02-09 11:00:00 5 41 Sudoeste 64 Sudoeste 1.2 -- -- 99
2021-02-09 10:00:00 5 34 Sudoeste 59 Sudoeste 0.6 -- -- 100
2021-02-09 09:00:00 4.8 31 Sudoeste 55 Sudoeste 0.4 -- -- 100
2021-02-09 08:00:00 4.2 26 Sudoeste 44 Sudoeste 0.2 -- -- 100
2021-02-09 07:00:00 3.7 27 Sudoeste 49 Sudoeste 0 -- -- 100
2021-02-09 06:00:00 3.3 22 Sudoeste 45 Sudoeste 0 -- -- 100
2021-02-09 05:00:00 3 23 Sudoeste 43 Sudoeste 0.4 -- -- 100
2021-02-09 04:00:00 3 27 Sudoeste 53 Sudoeste 1.2 -- -- 99
2021-02-09 03:00:00 3.4 27 Sudoeste 44 Sudoeste 0.6 -- -- 99
2021-02-09 02:00:00 3.7 21 Sudoeste 35 Sudoeste 0 -- -- 98
2021-02-09 01:00:00 4 21 Sudoeste 39 Sudoeste 0 -- -- 99
2021-02-09 00:00:00 3.8 19 Sudoeste 30 Sudoeste 0 -- -- 99
2021-02-08 23:00:00 3.7 18 Sudoeste 25 Sudoeste 0 -- -- 99
2021-02-08 22:00:00 3.6 14 Oeste 24 Sudoeste 0 -- -- 96
2021-02-08 21:00:00 2.6 14 Oeste 22 Oeste 0 -- -- 96
2021-02-08 20:00:00 3 14 Oeste 34 Oeste 0 -- -- 96
2021-02-08 19:00:00 4.1 19 Oeste 37 Oeste 0 -- -- 92
2021-02-08 18:00:00 5 16 Oeste 35 Oeste 0 -- -- 93
2021-02-08 17:00:00 5.3 18 Oeste 35 Oeste 0 -- -- 96
2021-02-08 16:00:00 4 16 Oeste 45 Oeste 1 -- -- 98
2021-02-08 15:00:00 4.7 12 Oeste 42 Sudoeste 0.4 -- -- 97
2021-02-08 14:00:00 5.8 27 Sudoeste 39 Sudoeste 0 -- -- 88
2021-02-08 13:00:00 5.2 19 Sudoeste 33 Oeste 0 -- -- 96
2021-02-08 12:00:00 3.7 15 Oeste 31 Oeste 0 -- -- 100
2021-02-08 11:00:00 3.1 19 Oeste 39 Oeste 0 -- -- 100
2021-02-08 10:00:00 2.6 15 Oeste 26 Oeste 0 -- -- 100
2021-02-08 09:00:00 2.3 13 Oeste 22 Sudoeste 0 -- -- 100
2021-02-08 08:00:00 2.6 14 Oeste 29 Oeste 0 -- -- 100
2021-02-08 07:00:00 3.2 15 Oeste 26 Oeste 0 -- -- 100
2021-02-08 06:00:00 3.7 17 Oeste 31 Oeste 0 -- -- 100
2021-02-08 05:00:00 4.5 18 Oeste 35 Oeste 0 -- -- 100
2021-02-08 04:00:00 4.6 20 Sudoeste 31 Oeste 0 -- -- 100
2021-02-08 03:00:00 4.1 14 Sudoeste 27 Sudoeste 0.4 -- -- 100
2021-02-08 02:00:00 3.5 9 Oeste 38 Oeste 3.2 -- -- 100
2021-02-08 01:00:00 3.3 15 Sudoeste 24 Sudoeste 0.6 -- -- 100
2021-02-08 00:00:00 2.8 10 Sudoeste 22 Sudoeste 1 -- -- 100
2021-02-07 23:00:00 2.6 14 Sudoeste 25 Sudoeste 0.2 -- -- 100
2021-02-07 22:00:00 2.3 13 Sudoeste 25 Sudoeste 0.2 -- -- 100
2021-02-07 21:00:00 2.4 19 Sudoeste 31 Sudoeste 0 -- -- 100
2021-02-07 20:00:00 2.5 20 Sudoeste 30 Sudoeste 0.2 -- -- 100
2021-02-07 19:00:00 2.6 17 Sudoeste 27 Sudoeste 0 -- -- 99
2021-02-07 18:00:00 2.7 10 Oeste 24 Sudoeste 0.2 -- -- 97
2021-02-07 17:00:00 2.5 8 Oeste 25 Oeste 0 -- -- 94
2021-02-07 16:00:00 3.1 14 Oeste 31 Oeste 0 -- -- 87
2021-02-07 15:00:00 3 20 Oeste 33 Oeste 0 -- -- 86
2021-02-07 14:00:00 3.1 22 Oeste 34 Oeste 0 -- -- 84
2021-02-07 13:00:00 2.6 19 Oeste 31 Oeste 0 -- -- 85
2021-02-07 12:00:00 2.2 14 Oeste 25 Oeste 0 -- -- 81
2021-02-07 11:00:00 0.9 7 Sudoeste 12 Oeste 0 -- -- 94
2021-02-07 10:00:00 -0.8 0 Calma 4 Oeste 0 -- -- 100
2021-02-07 09:00:00 -2.3 0 Calma -- -- 0 -- -- 100
2021-02-07 08:00:00 -2.6 0 Calma -- -- 0 -- -- 100
2021-02-07 07:00:00 -3.3 0 Calma -- -- 0 -- -- 99
2021-02-07 06:00:00 -3.1 0 Calma -- -- 0 -- -- 96
2021-02-07 05:00:00 -2.7 0 Calma 8 Norte 0 -- -- 95
2021-02-07 04:00:00 -2.1 0 Calma 9 Norte 0 -- -- 93
2021-02-07 03:00:00 -1.5 2 Noroeste 8 Noroeste 0 -- -- 92
2021-02-07 02:00:00 -1.1 3 Noroeste 8 Noroeste 0 -- -- 90
2021-02-07 01:00:00 -0.9 0 Calma -- -- 0 -- -- 91
2021-02-07 00:00:00 -1 0 Calma 7 Norte 0 -- -- 95
2021-02-06 23:00:00 0.2 4 Norte 17 Noroeste 0 -- -- 89
2021-02-06 22:00:00 0.4 4 Noroeste 16 Noroeste 0 -- -- 90
2021-02-06 21:00:00 1.1 3 Noroeste 10 Noroeste 0 -- -- 88
2021-02-06 20:00:00 1.6 3 Noroeste 8 Norte 0 -- -- 93
2021-02-06 19:00:00 3.2 4 Norte 10 Noroeste 0 -- -- 95
2021-02-06 18:00:00 4.7 8 Sudeste 25 Nordeste 0.6 -- -- 95
2021-02-06 17:00:00 5.3 8 Nordeste 21 Norte 0.2 -- -- 90
2021-02-06 16:00:00 5.6 10 Norte 20 Noroeste 0 -- -- 90
2021-02-06 15:00:00 6.3 3 Sur 8 Oeste 0 -- -- 88
2021-02-06 14:00:00 5.7 3 Noroeste 8 Noroeste 0.4 -- -- 95
2021-02-06 13:00:00 5 4 Noroeste 9 Norte 0.4 -- -- 98
2021-02-06 12:00:00 4.8 3 Noroeste 8 Noroeste 0.4 -- -- 98
2021-02-06 11:00:00 4.4 0 Calma 7 Norte 0 -- -- 99
2021-02-06 10:00:00 4.1 2 Norte 8 Noroeste 0.4 -- -- 99
2021-02-06 09:00:00 4 0 Calma 10 Norte 0.8 -- -- 98
2021-02-06 08:00:00 4.2 6 Norte 15 Nordeste 2.4 -- -- 96
2021-02-06 07:00:00 4.4 13 Nordeste 20 Nordeste 1.2 -- -- 96
2021-02-06 06:00:00 4.9 15 Nordeste 25 Nordeste 0 -- -- 94
2021-02-06 05:00:00 5.1 16 Nordeste 26 Nordeste 0.2 -- -- 95
2021-02-06 04:00:00 5.6 7 Nordeste 22 Nordeste 0.6 -- -- 98
2021-02-06 03:00:00 6 14 Nordeste 27 Nordeste 0.2 -- -- 97
2021-02-06 02:00:00 6.3 15 Nordeste 30 Este 0.2 -- -- 98
2021-02-06 01:00:00 6.6 18 Este 30 Este 0 -- -- 96
2021-02-06 00:00:00 6.6 19 Este 34 Este 0 -- -- 95
2021-02-05 23:00:00 6.7 18 Nordeste 33 Nordeste 0 -- -- 94
2021-02-05 22:00:00 6.7 26 Nordeste 38 Nordeste 0.8 -- -- 96
2021-02-05 21:00:00 6.8 22 Nordeste 36 Nordeste 0.6 -- -- 95
2021-02-05 20:00:00 6.8 26 Nordeste 39 Este 0 -- -- 93
2021-02-05 19:00:00 6.8 23 Este 35 Este 0 -- -- 92
2021-02-05 18:00:00 8.1 19 Nordeste 32 Nordeste 0 -- -- 91
2021-02-05 17:00:00 9.6 15 Nordeste 22 Nordeste 0 -- -- 84
2021-02-05 16:00:00 9.7 11 Nordeste 21 Nordeste 0 -- -- 85
2021-02-05 15:00:00 9.6 16 Nordeste 26 Nordeste 0 -- -- 89
2021-02-05 14:00:00 8.1 15 Nordeste 19 Nordeste 0 -- -- 99
2021-02-05 13:00:00 6.8 7 Nordeste 13 Este 0 -- -- 100
2021-02-05 12:00:00 6.4 10 Este 15 Este 0.6 -- -- 100
2021-02-05 11:00:00 5.7 4 Este 13 Este 0.6 -- -- 100
2021-02-05 10:00:00 5.2 8 Este 15 Este 0.4 -- -- 100
2021-02-05 09:00:00 4.9 8 Nordeste 17 Nordeste 0 -- -- 100
2021-02-05 08:00:00 4.8 12 Nordeste 18 Nordeste 0.6 -- -- 100
2021-02-05 07:00:00 4.7 10 Nordeste 13 Nordeste 0 -- -- 100
2021-02-05 06:00:00 4.6 9 Norte 12 Nordeste 0 -- -- 100
2021-02-05 05:00:00 4.5 9 Nordeste 13 Nordeste 0 -- -- 100
2021-02-05 04:00:00 4.2 3 Nordeste 6 Nordeste 0.4 -- -- 100
2021-02-05 03:00:00 4.1 5 Norte 8 Norte 0.8 -- -- 100
2021-02-05 02:00:00 3.8 6 Norte 11 Norte 0 -- -- 100
2021-02-05 01:00:00 3.8 5 Norte 8 Norte 0 -- -- 100
2021-02-05 00:00:00 3.8 0 Calma 5 Noroeste 0.2 -- -- 100
2021-02-04 23:00:00 3.6 0 Calma 6 Noroeste 0 -- -- 100
2021-02-04 22:00:00 3.2 0 Calma -- -- 0 -- -- 100
2021-02-04 21:00:00 3.4 0 Calma -- -- 0.2 -- -- 99
2021-02-04 20:00:00 4.1 0 Calma -- -- 0 -- -- 99
2021-02-04 19:00:00 4.2 0 Calma -- -- 0.2 -- -- 97
2021-02-04 18:00:00 4.5 4 Este 11 Este 0 -- -- 97
2021-02-04 17:00:00 4.7 7 Nordeste 10 Nordeste 0.2 -- -- 96
2021-02-04 16:00:00 4.8 5 Nordeste 8 Nordeste 2 -- -- 96
2021-02-04 15:00:00 4.8 0 Calma 7 Sudoeste 3.6 -- -- 95
2021-02-04 14:00:00 5.2 4 Sudoeste 8 Sudoeste 0.8 -- -- 91
2021-02-04 13:00:00 6 5 Sur 11 Sudoeste 0 -- -- 87
2021-02-04 12:00:00 6 0 Calma 3 Nordeste 0 -- -- 100
2021-02-04 11:00:00 5.7 4 Nordeste 6 Este 0 -- -- 100
2021-02-04 10:00:00 5.5 0 Calma 7 Sur 0.2 -- -- 100
2021-02-04 09:00:00 4.9 3 Sudeste 6 Sur 0 -- -- 100
2021-02-04 08:00:00 4.1 0 Calma 5 Nordeste 0 -- -- 100
2021-02-04 07:00:00 3.3 0 Calma -- -- 0 -- -- 100
2021-02-04 06:00:00 3.7 0 Calma 9 Sur 0 -- -- 100
2021-02-04 05:00:00 3.5 0 Calma 9 Sudoeste 0 -- -- 100
2021-02-04 04:00:00 4.4 6 Sudoeste 13 Oeste 0 -- -- 100
2021-02-04 03:00:00 4.4 6 Sudoeste 20 Sudoeste 0 -- -- 99
2021-02-04 02:00:00 5.2 14 Sudoeste 23 Sudoeste 0 -- -- 99
2021-02-04 01:00:00 5.5 15 Sudoeste 25 Sudoeste 0 -- -- 99
2021-02-04 00:00:00 5.4 12 Sudoeste 19 Sudoeste 0 -- -- 99
2021-02-03 23:00:00 6.1 13 Sudoeste 24 Sudoeste 0 -- -- 99
2021-02-03 22:00:00 6.2 12 Sudoeste 26 Sudoeste 0 -- -- 98
2021-02-03 21:00:00 6.9 14 Sudoeste 26 Sudoeste 0 -- -- 97
2021-02-03 20:00:00 6.9 13 Sudoeste 30 Sudoeste 0 -- -- 93
2021-02-03 19:00:00 7.4 17 Sudoeste 28 Sudoeste 0 -- -- 90
2021-02-03 18:00:00 8.6 9 Sudoeste 32 Sudoeste 0 -- -- 79
2021-02-03 17:00:00 10.1 23 Sudoeste 34 Sudoeste 0 -- -- 70
2021-02-03 16:00:00 10.5 27 Sudoeste 42 Sudoeste 0 -- -- 65
2021-02-03 15:00:00 9.9 25 Oeste 44 Oeste 0 -- -- 68
2021-02-03 14:00:00 10 29 Sudoeste 48 Sudoeste 0 -- -- 71
2021-02-03 13:00:00 9.8 28 Oeste 46 Sudoeste 0 -- -- 74
2021-02-03 12:00:00 7.8 30 Sudoeste 53 Sudoeste 0 -- -- 83
2021-02-03 11:00:00 7.4 33 Sudoeste 48 Sudoeste 0 -- -- 84
2021-02-03 10:00:00 6.4 33 Oeste 51 Oeste 0 -- -- 87
2021-02-03 09:00:00 6.8 28 Sudoeste 52 Sudoeste 0 -- -- 98
2021-02-03 08:00:00 7.2 33 Sudoeste 51 Sudoeste 0 -- -- 99
2021-02-03 07:00:00 7.3 28 Sudoeste 58 Sudoeste 1.4 -- -- 100
2021-02-03 06:00:00 7.3 26 Sudoeste 46 Sudoeste 0.6 -- -- 100
2021-02-03 05:00:00 7.2 30 Sudoeste 45 Sudoeste 0 -- -- 100
2021-02-03 04:00:00 7.1 26 Sudoeste 45 Sudoeste 0 -- -- 100
2021-02-03 03:00:00 6.5 21 Sudoeste 36 Sudoeste 0.4 -- -- 100
2021-02-03 02:00:00 6.6 21 Sudoeste 45 Sudoeste 0.2 -- -- 100
2021-02-03 01:00:00 6.8 23 Sudoeste 45 Sudoeste 0 -- -- 99
2021-02-03 00:00:00 7.4 24 Sudoeste 48 Sudoeste 0 -- -- 94
2021-02-02 23:00:00 7.4 26 Sudoeste 44 Sudoeste 0 -- -- 96
2021-02-02 22:00:00 7.3 22 Sudoeste 40 Sur 0.4 -- -- 99
2021-02-02 21:00:00 7.3 17 Sudoeste 37 Sudoeste 0 -- -- 99
2021-02-02 20:00:00 7.4 24 Sudoeste 39 Sudoeste 0 -- -- 98
2021-02-02 19:00:00 7.7 21 Sudoeste 37 Sudoeste 0.2 -- -- 96
2021-02-02 18:00:00 8.1 21 Sudoeste 37 Sudoeste 0 -- -- 94
2021-02-02 17:00:00 8.5 20 Sudoeste 29 Sudoeste 0 -- -- 95
2021-02-02 16:00:00 8.4 13 Sudoeste 26 Sudoeste 0.2 -- -- 96
2021-02-02 15:00:00 8.1 14 Sudoeste 33 Sudoeste 0.6 -- -- 97
2021-02-02 14:00:00 8.3 25 Sudoeste 37 Oeste 0 -- -- 93
2021-02-02 13:00:00 8.4 21 Sudoeste 36 Sudoeste 0 -- -- 90
2021-02-02 12:00:00 8.2 21 Sudoeste 37 Sudoeste 0 -- -- 92
2021-02-02 11:00:00 7.8 25 Sudoeste 35 Sudoeste 0 -- -- 96
2021-02-02 10:00:00 7.1 23 Sudoeste 36 Sudoeste 0 -- -- 100
2021-02-02 09:00:00 6.9 17 Sudoeste 24 Sudoeste 0 -- -- 100
2021-02-02 08:00:00 7 15 Sudoeste 36 Sudoeste 0 -- -- 100
2021-02-02 07:00:00 7.5 23 Oeste 36 Sudoeste 0 -- -- 100
2021-02-02 06:00:00 7.6 21 Oeste 38 Sudoeste 0 -- -- 100
2021-02-02 05:00:00 7.8 24 Oeste 40 Oeste 0 -- -- 100
2021-02-02 04:00:00 7.9 23 Oeste 35 Sudoeste 0 -- -- 100
2021-02-02 03:00:00 7.8 25 Sudoeste 35 Sudoeste 0 -- -- 100
2021-02-02 02:00:00 7.7 20 Oeste 38 Sudoeste 0 -- -- 100
2021-02-02 01:00:00 7.7 19 Oeste 35 Sudoeste 0 -- -- 99
2021-02-02 00:00:00 7.6 17 Sudoeste 32 Sudoeste 0 -- -- 96
2021-02-01 23:00:00 7.9 21 Sudoeste 36 Sudoeste 0 -- -- 94
2021-02-01 22:00:00 8.2 21 Sudoeste 40 Oeste 0 -- -- 91
2021-02-01 21:00:00 8.7 29 Oeste 42 Sudoeste 0 -- -- 88
2021-02-01 20:00:00 8.4 17 Sudoeste 31 Sudoeste 0 -- -- 86
2021-02-01 19:00:00 9 6 Oeste 33 Oeste 0 -- -- 81
2021-02-01 18:00:00 10.9 24 Oeste 45 Oeste 0 -- -- 74
2021-02-01 17:00:00 11.5 22 Oeste 46 Oeste 0 -- -- 69
2021-02-01 16:00:00 12 24 Oeste 57 Oeste 0 -- -- 68
2021-02-01 15:00:00 12 35 Oeste 54 Oeste 0 -- -- 67
2021-02-01 14:00:00 12.1 38 Oeste 54 Oeste 0 -- -- 70
2021-02-01 13:00:00 11.7 33 Oeste 51 Oeste 0 -- -- 75
2021-02-01 12:00:00 10.5 31 Oeste 52 Oeste 0 -- -- 80
2021-02-01 11:00:00 9.2 30 Oeste 53 Oeste 0 -- -- 83
2021-02-01 10:00:00 7.6 35 Oeste 54 Oeste 0 -- -- 88
2021-02-01 09:00:00 6.5 32 Oeste 60 Oeste 0 -- -- 89
2021-02-01 08:00:00 6.2 32 Oeste 53 Oeste 0 -- -- 87
2021-02-01 07:00:00 6.3 35 Oeste 53 Oeste 0 -- -- 85
2021-02-01 06:00:00 6.4 27 Oeste 46 Oeste 0 -- -- 85
2021-02-01 05:00:00 6.4 27 Oeste 50 Oeste 0 -- -- 84
2021-02-01 04:00:00 6.3 31 Oeste 52 Oeste 0 -- -- 85
2021-02-01 03:00:00 5.5 27 Oeste 44 Oeste 0 -- -- 89
2021-02-01 02:00:00 6.1 30 Oeste 50 Oeste 0 -- -- 85
2021-02-01 01:00:00 6.7 32 Oeste 46 Oeste 0 -- -- 82
2021-02-01 00:00:00 7.5 31 Oeste 59 Oeste 0 -- -- 79
2021-01-31 23:00:00 7.9 32 Oeste 50 Oeste 0 -- -- 80
2021-01-31 22:00:00 8.5 31 Oeste 50 Sudoeste 0 -- -- 80
2021-01-31 21:00:00 8.6 27 Oeste 45 Oeste 0 -- -- 82
2021-01-31 20:00:00 9.3 28 Oeste 45 Oeste 0 -- -- 77
2021-01-31 19:00:00 10.2 24 Oeste 45 Oeste 0 -- -- 71
2021-01-31 18:00:00 11.7 32 Oeste 56 Oeste 0 -- -- 67
2021-01-31 17:00:00 11.8 32 Oeste 57 Oeste 0 -- -- 67
2021-01-31 16:00:00 12 36 Oeste 63 Oeste 0 -- -- 69
2021-01-31 15:00:00 11.7 37 Oeste 59 Oeste 0 -- -- 73
2021-01-31 14:00:00 12.2 35 Oeste 55 Oeste 0 -- -- 76
2021-01-31 13:00:00 10.1 31 Oeste 48 Oeste 0 -- -- 86
2021-01-31 12:00:00 8.1 15 Sudoeste 27 Oeste 0 -- -- 91
2021-01-31 11:00:00 6.6 16 Oeste 32 Oeste 0 -- -- 90
2021-01-31 10:00:00 5.8 20 Oeste 48 Oeste 0 -- -- 94
2021-01-31 09:00:00 4.8 21 Oeste 39 Oeste 0 -- -- 94
2021-01-31 08:00:00 3.6 10 Oeste 28 Oeste 0 -- -- 95
2021-01-31 07:00:00 2.9 10 Sudoeste 22 Oeste 0 -- -- 93
2021-01-31 06:00:00 2.4 6 Oeste 17 Oeste 0 -- -- 95
2021-01-31 05:00:00 1.6 9 Oeste 17 Sudoeste 0 -- -- 97
2021-01-31 04:00:00 1.8 4 Oeste 19 Oeste 0 -- -- 93
2021-01-31 03:00:00 2.5 9 Oeste 23 Oeste 0 -- -- 92
2021-01-31 02:00:00 2.8 16 Oeste 34 Oeste 0 -- -- 94
2021-01-31 01:00:00 2.8 21 Oeste 44 Oeste 0 -- -- 93
2021-01-31 00:00:00 2.9 27 Oeste 54 Oeste 0 -- -- 91